createdAt,value
2023-03-21T00:05:32.000Z,33.6
2023-03-21T00:11:50.144Z,31.1
2023-03-21T00:17:58.937Z,29.9
2023-03-21T00:24:36.070Z,28.3
2023-03-21T00:31:10.581Z,33.1
2023-03-21T00:38:19.280Z,31.4
2023-03-21T00:44:44.474Z,30
2023-03-21T00:51:01.751Z,29
2023-03-21T00:56:55.282Z,32.4
2023-03-21T01:03:08.764Z,32.2
2023-03-21T01:09:09.426Z,30.4
2023-03-21T01:15:11.396Z,29.4
2023-03-21T01:21:29.927Z,28.9
2023-03-21T01:27:02.590Z,33.4
2023-03-21T01:33:11.527Z,31.4
2023-03-21T01:39:12.508Z,30.1
2023-03-21T01:44:46.649Z,29.1
2023-03-21T01:50:46.323Z,30.2
2023-03-21T01:56:44.980Z,33.4
2023-03-21T02:02:17.266Z,31.1
2023-03-21T02:08:12.953Z,30
2023-03-21T02:14:06.057Z,29.1
2023-03-21T02:20:09.684Z,30.4
2023-03-21T02:25:29.622Z,32.9
2023-03-21T02:31:41.687Z,31.1
2023-03-21T02:38:17.739Z,29.9
2023-03-21T02:44:45.293Z,28.9
2023-03-21T02:51:19.982Z,31.1
2023-03-21T02:58:10.340Z,32.6
2023-03-21T03:03:51.224Z,30.5
2023-03-21T03:09:35.921Z,29.6
2023-03-21T03:16:07.786Z,28.6
2023-03-21T03:21:55.874Z,32.3
2023-03-21T03:27:55.509Z,32.1
2023-03-21T03:33:55.489Z,30.6
2023-03-21T03:39:35.756Z,29.6
2023-03-21T03:46:03.495Z,28.7
2023-03-21T03:52:06.668Z,31.9
2023-03-21T03:58:23.088Z,32.4
2023-03-21T04:04:46.501Z,30.6
2023-03-21T04:10:52.272Z,29.5
2023-03-21T04:16:52.268Z,28.4
2023-03-21T04:22:34.205Z,32.2
2023-03-21T04:28:42.563Z,32.3
2023-03-21T04:35:01.186Z,30.6
2023-03-21T04:40:53.827Z,29.5
2023-03-21T04:46:46.614Z,28.6
2023-03-21T04:52:37.327Z,31.5
2023-03-21T04:58:30.742Z,32.6
2023-03-21T05:04:23.798Z,30.8
2023-03-21T05:10:18.840Z,29.8
2023-03-21T05:16:12.540Z,28.8
2023-03-21T05:22:03.942Z,30.4
2023-03-21T05:27:55.811Z,33.6
2023-03-21T05:33:49.572Z,31.3
2023-03-21T05:39:27.214Z,30.1
2023-03-21T05:45:20.158Z,29.3
2023-03-21T05:50:58.582Z,28.1
2023-03-21T05:56:50.913Z,32.8
2023-03-21T06:02:42.866Z,31.7
2023-03-21T06:08:36.258Z,30.4
2023-03-21T06:14:28.481Z,29.5
2023-03-21T06:20:21.114Z,28
2023-03-21T06:25:43.642Z,32.6
2023-03-21T06:31:20.138Z,32.3
2023-03-21T06:37:12.461Z,30.6
2023-03-21T06:43:05.613Z,29.6
2023-03-21T06:48:59.251Z,28.7
2023-03-21T06:54:21.337Z,32.4
2023-03-21T07:00:13.713Z,32.6
2023-03-21T07:05:54.103Z,30.8
2023-03-21T07:11:30.740Z,29.8
2023-03-21T07:17:24.158Z,28.9
2023-03-21T07:23:17.217Z,32.3
2023-03-21T07:29:15.572Z,32.4
2023-03-21T07:34:38.057Z,30.7
2023-03-21T07:40:14.575Z,29.8
2023-03-21T07:46:11.087Z,29
2023-03-21T07:52:04.750Z,32.3
2023-03-21T07:57:57.835Z,32.4
2023-03-21T08:03:50.879Z,30.7
2023-03-21T08:09:47.585Z,29.6
2023-03-21T08:15:40.796Z,28.3
2023-03-21T08:21:33.129Z,33.1
2023-03-21T08:27:25.983Z,31.9
2023-03-21T08:33:03.958Z,30.4
2023-03-21T08:39:00.436Z,29.4
2023-03-21T08:50:32.419Z,33.5
2023-03-21T08:56:26.375Z,31.6
2023-03-21T09:02:20.049Z,30.3
2023-03-21T09:08:14.249Z,29.3
2023-03-21T09:14:28.865Z,28.8
2023-03-21T09:20:07.669Z,33.4
2023-03-21T09:26:02.027Z,31.2
2023-03-21T09:31:38.788Z,29.9
2023-03-21T09:37:32.683Z,29.1
2023-03-21T09:43:25.099Z,28.9
2023-03-21T09:49:30.172Z,34.1
2023-03-21T09:55:29.501Z,31.2
2023-03-21T10:01:23.513Z,30
2023-03-21T10:07:17.266Z,29
2023-03-21T10:13:10.272Z,29.2
2023-03-21T10:19:06.795Z,33.8
2023-03-21T10:25:26.348Z,31.1
2023-03-21T10:31:36.291Z,29.8
2023-03-21T10:37:31.059Z,28.8
2023-03-21T10:43:08.948Z,31.1
2023-03-21T10:49:07.688Z,33.5
2023-03-21T10:55:22.987Z,30.9
2023-03-21T11:01:00.575Z,29.6
2023-03-21T11:06:38.662Z,28.8
2023-03-21T11:12:42.731Z,31.3
2023-03-21T11:18:37.257Z,33.2
2023-03-21T11:24:15.779Z,30.8
2023-03-21T11:30:08.836Z,29.7
2023-03-21T11:36:01.932Z,28.6
2023-03-21T11:41:54.546Z,32.3
2023-03-21T11:47:49.494Z,32.8
2023-03-21T11:53:31.849Z,30.6
2023-03-21T11:59:37.702Z,29.6
2023-03-21T12:05:44.158Z,28.6
2023-03-21T12:11:37.209Z,32.9
2023-03-21T12:17:38.508Z,32.3
2023-03-21T12:23:32.840Z,30.4
2023-03-21T12:29:38.903Z,29.4
2023-03-21T12:35:33.423Z,28.4
2023-03-21T12:41:28.944Z,27.6
2023-03-21T12:47:42.712Z,26.7
2023-03-21T12:53:21.236Z,25.9
2023-03-21T12:58:49.637Z,25.3
2023-03-21T13:04:46.303Z,24.8
2023-03-21T13:10:30.721Z,24.4
2023-03-21T13:16:31.783Z,23.9
2023-03-21T13:22:23.699Z,23.6
2023-03-21T13:28:17.806Z,23.3
2023-03-21T13:34:06.334Z,23
2023-03-21T13:39:57.932Z,22.8
2023-03-21T13:45:57.738Z,22.6
2023-03-21T13:52:11.651Z,22.4
2023-03-21T13:58:04.722Z,22.2
2023-03-21T14:03:45.454Z,22.1
2023-03-21T14:10:18.867Z,21.9
2023-03-21T14:16:39.561Z,21.7
2023-03-21T14:22:49.099Z,21.6
2023-03-21T14:28:50.632Z,21.5
2023-03-21T14:34:45.599Z,21.4
2023-03-21T14:40:33.930Z,21.4
2023-03-21T14:46:36.026Z,21.3
2023-03-21T14:52:28.502Z,21.2
2023-03-21T15:03:45.159Z,21.1
2023-03-21T15:09:23.191Z,20.9
2023-03-21T15:15:29.493Z,20.9
2023-03-21T15:21:23.920Z,20.9
2023-03-21T15:27:17.248Z,20.8
2023-03-21T15:32:56.232Z,20.8
2023-03-21T15:38:34.020Z,20.8
2023-03-21T15:44:13.484Z,20.7
2023-03-21T15:49:52.416Z,20.6
2023-03-21T15:55:32.879Z,20.6
2023-03-21T16:00:39.412Z,20.6
2023-03-21T16:06:32.918Z,20.5
2023-03-21T16:12:26.731Z,20.5
2023-03-21T16:18:18.680Z,20.4
2023-03-21T16:24:11.833Z,20.4
2023-03-21T16:30:04.331Z,20.4
2023-03-21T16:35:57.660Z,20.4
2023-03-21T16:41:35.070Z,20.4
2023-03-21T16:47:13.424Z,20.4
2023-03-21T16:52:50.757Z,20.3
2023-03-21T16:58:29.557Z,20.4
2023-03-21T17:04:23.384Z,30.5
2023-03-21T17:10:01.858Z,35.8
2023-03-21T17:15:54.811Z,36.1
2023-03-21T17:21:49.209Z,38
2023-03-21T17:27:27.996Z,39.4
2023-03-21T17:33:21.441Z,39.1
2023-03-21T17:39:14.666Z,38.5
2023-03-21T17:45:06.751Z,37.9
2023-03-21T17:50:29.608Z,36.3
2023-03-21T17:55:54.733Z,37.5
2023-03-21T18:01:48.159Z,37.8
2023-03-21T18:08:24.471Z,36.3
2023-03-21T18:14:34.779Z,36.9
2023-03-21T18:20:09.833Z,38
2023-03-21T18:26:26.770Z,38
2023-03-21T18:34:50.769Z,38.7
2023-03-21T18:40:50.766Z,38.9
2023-03-21T18:47:57.456Z,37.7
2023-03-21T18:54:41.049Z,37.4
2023-03-21T19:01:54.391Z,38.4
2023-03-21T19:08:14.185Z,38.7
2023-03-21T19:14:41.572Z,38.1
2023-03-21T19:22:12.383Z,37.6
2023-03-21T19:28:42.160Z,37.3
2023-03-21T19:34:59.453Z,37.2
2023-03-21T19:47:32.922Z,35.4
2023-03-21T19:54:50.344Z,34.1
2023-03-21T20:00:56.062Z,33.3
2023-03-21T20:07:15.591Z,32.6
2023-03-21T20:14:00.171Z,32
2023-03-21T20:20:09.599Z,31.3
2023-03-21T20:26:42.189Z,30.7
2023-03-21T20:34:00.067Z,30.3
2023-03-21T20:41:08.354Z,29.9
2023-03-21T20:48:23.797Z,29.6
2023-03-21T20:55:37.859Z,29.7
2023-03-21T21:02:19.049Z,29.8
2023-03-21T21:08:32.621Z,29.6
2023-03-21T21:15:17.676Z,29.4
2023-03-21T21:21:40.296Z,29
2023-03-21T21:27:42.889Z,28.7
2023-03-21T21:33:36.480Z,28.4
2023-03-21T21:39:28.949Z,28.1
2023-03-21T21:45:21.248Z,27.9
2023-03-21T21:50:59.594Z,27.7
2023-03-21T21:56:38.118Z,27.6
2023-03-21T22:02:29.722Z,27.1
2023-03-21T22:08:09.047Z,26.3
2023-03-21T22:13:48.286Z,25.9
2023-03-21T22:19:26.079Z,25.5
2023-03-21T22:25:06.928Z,25.2
2023-03-21T22:31:01.131Z,24.9
2023-03-21T22:36:45.689Z,24.6
2023-03-21T22:42:39.321Z,24.5
2023-03-21T22:48:15.870Z,33.2
2023-03-21T22:54:07.607Z,30.7
2023-03-21T23:00:00.783Z,29.3
2023-03-21T23:05:39.249Z,28.5
2023-03-21T23:11:17.142Z,27.8
2023-03-21T23:17:10.276Z,27.1
2023-03-21T23:22:47.075Z,26.4
2023-03-21T23:28:42.554Z,25.9
2023-03-21T23:34:20.689Z,27.4
2023-03-21T23:40:13.528Z,33.5
2023-03-21T23:46:05.168Z,30.6
2023-03-21T23:51:59.172Z,29.4
2023-03-21T23:57:52.626Z,28.6
